createdAt,value
2022-08-04T00:00:13.233Z,100.00
2022-08-04T00:02:53.224Z,100.00
2022-08-04T00:05:31.694Z,100.00
2022-08-04T00:08:08.209Z,100.00
2022-08-04T00:10:37.451Z,100.00
2022-08-04T00:13:06.598Z,100.00
2022-08-04T00:15:35.665Z,100.00
2022-08-04T00:18:07.054Z,100.00
2022-08-04T00:20:41.021Z,100.00
2022-08-04T00:23:10.047Z,100.00
2022-08-04T00:25:41.647Z,100.00
2022-08-04T00:28:10.251Z,100.00
2022-08-04T00:30:38.510Z,100.00
2022-08-04T00:33:06.519Z,100.00
2022-08-04T00:35:39.294Z,100.00
2022-08-04T00:38:07.766Z,100.00
2022-08-04T00:40:46.838Z,100.00
2022-08-04T00:43:22.610Z,100.00
2022-08-04T00:46:17.466Z,100.00
2022-08-04T00:49:03.529Z,100.00
2022-08-04T00:51:45.370Z,100.00
2022-08-04T00:54:19.142Z,100.00
2022-08-04T00:57:31.167Z,100.00
2022-08-04T01:00:08.926Z,100.00
2022-08-04T01:02:49.923Z,100.00
2022-08-04T01:05:23.747Z,100.00
2022-08-04T01:08:06.440Z,100.00
2022-08-04T01:10:48.110Z,100.00
2022-08-04T01:13:43.542Z,100.00
2022-08-04T01:16:12.159Z,100.00
2022-08-04T01:18:49.515Z,100.00
2022-08-04T01:21:39.826Z,100.00
2022-08-04T01:24:29.356Z,100.00
2022-08-04T01:27:03.835Z,100.00
2022-08-04T01:29:44.392Z,100.00
2022-08-04T01:32:25.549Z,100.00
2022-08-04T01:35:01.259Z,100.00
2022-08-04T01:37:46.514Z,100.00
2022-08-04T01:40:16.203Z,100.00
2022-08-04T01:42:46.610Z,100.00
2022-08-04T01:45:16.351Z,100.00
2022-08-04T01:47:50.158Z,100.00
2022-08-04T01:50:18.560Z,100.00
2022-08-04T01:52:50.944Z,100.00
2022-08-04T01:55:19.579Z,100.00
2022-08-04T01:57:49.656Z,100.00
2022-08-04T02:00:21.390Z,100.00
2022-08-04T02:02:51.537Z,100.00
2022-08-04T02:05:21.507Z,100.00
2022-08-04T02:08:02.914Z,100.00
2022-08-04T02:10:36.905Z,100.00
2022-08-04T02:13:13.031Z,100.00
2022-08-04T02:15:54.584Z,100.00
2022-08-04T02:18:26.068Z,100.00
2022-08-04T02:20:59.356Z,100.00
2022-08-04T02:23:31.963Z,100.00
2022-08-04T02:26:03.059Z,100.00
2022-08-04T02:28:37.551Z,100.00
2022-08-04T02:31:19.223Z,100.00
2022-08-04T02:33:54.552Z,100.00
2022-08-04T02:36:25.108Z,100.00
2022-08-04T02:38:57.394Z,100.00
2022-08-04T02:41:27.310Z,100.00
2022-08-04T02:43:57.968Z,100.00
2022-08-04T02:46:28.276Z,100.00
2022-08-04T02:48:56.643Z,100.00
2022-08-04T02:51:29.114Z,100.00
2022-08-04T02:53:59.289Z,100.00
2022-08-04T02:56:30.166Z,100.00
2022-08-04T02:59:01.520Z,100.00
2022-08-04T03:01:31.258Z,100.00
2022-08-04T03:04:37.499Z,100.00
2022-08-04T03:07:44.092Z,100.00
2022-08-04T03:10:37.674Z,100.00
2022-08-04T03:13:57.406Z,100.00
2022-08-04T03:16:57.597Z,100.00
2022-08-04T03:20:07.452Z,100.00
2022-08-04T03:23:15.035Z,100.00
2022-08-04T03:26:09.204Z,100.00
2022-08-04T03:29:10.230Z,100.00
2022-08-04T03:32:08.181Z,100.00
2022-08-04T03:34:55.508Z,100.00
2022-08-04T03:38:10.016Z,100.00
2022-08-04T03:41:18.056Z,100.00
2022-08-04T03:44:32.868Z,100.00
2022-08-04T03:47:29.706Z,100.00
2022-08-04T03:50:41.453Z,100.00
2022-08-04T03:53:44.576Z,100.00
2022-08-04T03:56:37.510Z,100.00
2022-08-04T03:59:25.184Z,100.00
2022-08-04T04:02:38.483Z,100.00
2022-08-04T04:05:30.552Z,100.00
2022-08-04T04:08:19.592Z,100.00
2022-08-04T04:11:20.259Z,100.00
2022-08-04T04:14:02.767Z,100.00
2022-08-04T04:16:50.897Z,100.00
2022-08-04T04:19:30.900Z,100.00
2022-08-04T04:22:15.623Z,100.00
2022-08-04T04:25:10.763Z,100.00
2022-08-04T04:27:52.413Z,100.00
2022-08-04T04:30:28.824Z,100.00
2022-08-04T04:33:07.871Z,100.00
2022-08-04T04:35:51.591Z,100.00
2022-08-04T04:38:37.466Z,100.00
2022-08-04T04:41:21.948Z,100.00
2022-08-04T04:44:07.648Z,100.00
2022-08-04T04:46:43.016Z,100.00
2022-08-04T04:49:21.792Z,100.00
2022-08-04T04:51:52.402Z,100.00
2022-08-04T04:54:29.776Z,100.00
2022-08-04T04:57:08.600Z,100.00
2022-08-04T04:59:39.274Z,100.00
2022-08-04T05:02:33.592Z,100.00
2022-08-04T05:05:43.620Z,100.00
2022-08-04T05:08:44.401Z,100.00
2022-08-04T05:11:39.036Z,100.00
2022-08-04T05:14:38.593Z,100.00
2022-08-04T05:17:07.206Z,100.00
2022-08-04T05:19:46.907Z,100.00
2022-08-04T05:22:23.535Z,100.00
2022-08-04T05:25:01.750Z,100.00
2022-08-04T05:27:39.818Z,100.00
2022-08-04T05:30:13.707Z,100.00
2022-08-04T05:32:49.501Z,100.00
2022-08-04T05:35:52.933Z,100.00
2022-08-04T05:38:15.606Z,100.00
2022-08-04T05:40:44.803Z,100.00
2022-08-04T05:43:13.902Z,100.00
2022-08-04T05:45:48.317Z,100.00
2022-08-04T05:48:16.659Z,100.00
2022-08-04T05:50:46.402Z,100.00
2022-08-04T05:53:16.884Z,100.00
2022-08-04T05:55:56.985Z,100.00
2022-08-04T05:58:30.797Z,100.00
2022-08-04T06:01:01.062Z,100.00
2022-08-04T06:03:30.849Z,100.00
2022-08-04T06:05:59.769Z,100.00
2022-08-04T06:08:28.260Z,100.00
2022-08-04T06:11:00.108Z,100.00
2022-08-04T06:13:48.090Z,100.00
2022-08-04T06:16:28.935Z,100.00
2022-08-04T06:20:00.846Z,100.00
2022-08-04T06:21:51.554Z,100.00
2022-08-04T06:24:21.631Z,100.00
2022-08-04T06:26:51.346Z,100.00
2022-08-04T06:29:24.948Z,100.00
2022-08-04T06:32:30.889Z,100.00
2022-08-04T06:34:48.742Z,100.00
2022-08-04T06:37:43.053Z,100.00
2022-08-04T06:40:29.874Z,100.00
2022-08-04T06:42:57.471Z,100.00
2022-08-04T06:45:25.979Z,100.00
2022-08-04T06:47:56.698Z,100.00
2022-08-04T06:51:27.183Z,100.00
2022-08-04T06:53:14.396Z,100.00
2022-08-04T06:55:44.613Z,100.00
2022-08-04T06:58:13.687Z,100.00
2022-08-04T07:00:44.679Z,100.00
2022-08-04T07:03:14.811Z,100.00
2022-08-04T07:05:43.358Z,100.00
2022-08-04T07:08:12.229Z,100.00
2022-08-04T07:10:41.721Z,100.00
2022-08-04T07:13:11.629Z,100.00
2022-08-04T07:15:42.516Z,100.00
2022-08-04T07:18:10.637Z,100.00
2022-08-04T07:20:42.360Z,100.00
2022-08-04T07:23:12.082Z,100.00
2022-08-04T07:25:58.859Z,100.00
2022-08-04T07:28:29.725Z,100.00
2022-08-04T07:30:59.409Z,100.00
2022-08-04T07:33:27.437Z,100.00
2022-08-04T07:36:05.124Z,99.96
2022-08-04T07:38:48.709Z,98.78
2022-08-04T07:41:39.350Z,94.19
2022-08-04T07:44:08.687Z,95.74
2022-08-04T07:46:37.509Z,94.33
2022-08-04T07:49:06.236Z,91.41
2022-08-04T07:51:38.563Z,89.85
2022-08-04T07:54:09.223Z,89.84
2022-08-04T07:56:38.820Z,89.53
2022-08-04T07:59:07.372Z,87.68
2022-08-04T08:01:37.112Z,86.97
2022-08-04T08:04:08.203Z,86.45
2022-08-04T08:06:43.146Z,85.53
2022-08-04T08:09:14.540Z,85.31
2022-08-04T08:12:37.424Z,85.32
2022-08-04T08:14:33.469Z,86.02
2022-08-04T08:17:02.682Z,83.83
2022-08-04T08:19:31.033Z,84.03
2022-08-04T08:22:01.842Z,84.76
2022-08-04T08:24:31.424Z,83.74
2022-08-04T08:27:00.502Z,84.46
2022-08-04T08:29:30.033Z,84.46
2022-08-04T08:32:01.649Z,84.39
2022-08-04T08:34:37.749Z,83.61
2022-08-04T08:37:13.897Z,82.36
2022-08-04T08:39:47.210Z,81.00
2022-08-04T08:43:59.962Z,76.04
2022-08-04T08:46:00.320Z,79.50
2022-08-04T08:48:50.640Z,78.84
2022-08-04T08:51:28.719Z,81.91
2022-08-04T08:54:20.250Z,78.69
2022-08-04T08:57:01.131Z,80.49
2022-08-04T08:59:49.070Z,79.54
2022-08-04T09:02:46.173Z,78.81
2022-08-04T09:05:38.793Z,79.63
2022-08-04T09:08:24.247Z,78.06
2022-08-04T09:11:00.007Z,80.45
2022-08-04T09:13:34.345Z,79.86
2022-08-04T09:16:22.248Z,76.63
2022-08-04T09:18:57.681Z,76.36
2022-08-04T09:21:30.971Z,80.04
2022-08-04T09:24:36.257Z,77.71
2022-08-04T09:27:01.339Z,80.48
2022-08-04T09:29:37.859Z,79.99
2022-08-04T09:32:13.087Z,78.24
2022-08-04T09:35:03.290Z,80.35
2022-08-04T09:37:45.639Z,79.80
2022-08-04T09:40:31.793Z,80.63
2022-08-04T09:43:21.185Z,79.52
2022-08-04T09:46:00.137Z,81.58
2022-08-04T09:48:38.248Z,78.97
2022-08-04T09:51:15.412Z,80.57
2022-08-04T09:53:54.864Z,79.35
2022-08-04T09:56:29.411Z,77.43
2022-08-04T09:59:09.643Z,77.45
2022-08-04T10:01:39.126Z,79.71
2022-08-04T10:04:12.444Z,79.28
2022-08-04T10:07:13.580Z,78.46
2022-08-04T10:09:51.514Z,78.29
2022-08-04T10:12:31.366Z,77.11
2022-08-04T10:15:11.068Z,75.73
2022-08-04T10:18:18.508Z,74.81
2022-08-04T10:21:08.049Z,77.02
2022-08-04T10:24:00.144Z,77.46
2022-08-04T10:26:48.347Z,77.95
2022-08-04T10:29:20.814Z,78.11
2022-08-04T10:31:58.479Z,77.22
2022-08-04T10:34:30.484Z,78.02
2022-08-04T10:37:05.603Z,78.90
2022-08-04T10:39:44.251Z,76.52
2022-08-04T10:42:21.902Z,76.50
2022-08-04T10:45:02.651Z,78.75
2022-08-04T10:47:36.665Z,78.07
2022-08-04T10:50:06.521Z,77.50
2022-08-04T10:52:39.601Z,77.25
2022-08-04T10:55:13.315Z,77.58
2022-08-04T10:57:46.059Z,76.40
2022-08-04T11:00:19.830Z,75.39
2022-08-04T11:02:54.751Z,75.07
2022-08-04T11:05:30.309Z,76.92
2022-08-04T11:08:06.614Z,77.48
2022-08-04T11:10:42.163Z,76.21
2022-08-04T11:13:22.042Z,76.30
2022-08-04T11:16:04.181Z,75.84
2022-08-04T11:18:41.385Z,73.42
2022-08-04T11:21:17.086Z,75.37
2022-08-04T11:23:53.199Z,76.20
2022-08-04T11:26:25.874Z,74.64
2022-08-04T11:29:03.626Z,72.05
2022-08-04T11:31:34.578Z,74.13
2022-08-04T11:34:07.931Z,71.77
2022-08-04T11:36:43.290Z,71.69
2022-08-04T11:39:19.536Z,72.15
2022-08-04T11:41:53.488Z,71.79
2022-08-04T11:44:28.127Z,72.14
2022-08-04T11:47:00.559Z,72.14
2022-08-04T11:49:57.324Z,71.12
2022-08-04T11:52:25.331Z,71.74
2022-08-04T11:54:54.562Z,71.71
2022-08-04T11:57:25.798Z,71.29
2022-08-04T12:00:09.867Z,71.53
2022-08-04T12:03:03.092Z,67.63
2022-08-04T12:05:38.096Z,69.79
2022-08-04T12:08:23.433Z,69.53
2022-08-04T12:11:03.180Z,70.64
2022-08-04T12:13:38.349Z,68.98
2022-08-04T12:16:16.152Z,70.27
2022-08-04T12:18:52.543Z,69.92
2022-08-04T12:21:30.517Z,69.64
2022-08-04T12:24:02.813Z,70.11
2022-08-04T12:26:38.437Z,69.05
2022-08-04T12:29:10.916Z,69.32
2022-08-04T12:31:46.477Z,69.00
2022-08-04T12:34:18.656Z,68.92
2022-08-04T12:36:57.006Z,66.90
2022-08-04T12:39:28.119Z,67.91
2022-08-04T12:42:04.790Z,67.88
2022-08-04T12:44:37.387Z,68.65
2022-08-04T12:47:36.198Z,69.00
2022-08-04T12:50:01.687Z,69.06
2022-08-04T12:53:01.438Z,69.54
2022-08-04T12:55:27.075Z,69.92
2022-08-04T12:57:56.498Z,70.18
2022-08-04T13:00:30.130Z,69.41
2022-08-04T13:03:09.579Z,69.27
2022-08-04T13:05:41.097Z,70.27
2022-08-04T13:08:12.378Z,69.19
2022-08-04T13:10:42.525Z,69.04
2022-08-04T13:13:21.300Z,66.22
2022-08-04T13:16:00.445Z,68.50
2022-08-04T13:18:32.081Z,69.35
2022-08-04T13:21:20.163Z,67.64
2022-08-04T13:24:10.976Z,69.08
2022-08-04T13:30:00.153Z,70.74
2022-08-04T13:30:25.010Z,69.45
2022-08-04T13:32:31.846Z,70.22
2022-08-04T13:35:03.921Z,69.55
2022-08-04T13:37:35.385Z,70.10
2022-08-04T13:40:07.641Z,68.04
2022-08-04T13:42:36.410Z,68.31
2022-08-04T13:45:07.476Z,68.65
2022-08-04T13:47:38.711Z,67.64
2022-08-04T13:50:14.978Z,68.94
2022-08-04T13:52:44.134Z,68.45
2022-08-04T13:55:21.999Z,68.13
2022-08-04T13:57:54.256Z,68.96
2022-08-04T14:00:29.807Z,68.87
2022-08-04T14:03:23.228Z,68.58
2022-08-04T14:06:24.637Z,69.82
2022-08-04T14:08:55.609Z,69.13
2022-08-04T14:12:06.595Z,65.80
2022-08-04T14:14:25.775Z,67.47
2022-08-04T14:17:05.447Z,67.43
2022-08-04T14:19:52.823Z,67.44
2022-08-04T14:22:35.620Z,68.14
2022-08-04T14:25:09.067Z,69.59
2022-08-04T14:27:48.162Z,68.66
2022-08-04T14:30:24.080Z,68.93
2022-08-04T14:33:59.519Z,69.40
2022-08-04T14:35:58.497Z,70.40
2022-08-04T14:38:43.243Z,67.40
2022-08-04T14:41:11.354Z,68.55
2022-08-04T14:43:51.596Z,66.30
2022-08-04T14:46:19.983Z,68.21
2022-08-04T14:49:10.706Z,66.79
2022-08-04T14:51:41.975Z,68.84
2022-08-04T14:54:15.658Z,68.46
2022-08-04T14:56:54.158Z,68.18
2022-08-04T14:59:24.713Z,68.32
2022-08-04T15:02:00.993Z,68.76
2022-08-04T15:04:31.489Z,68.28
2022-08-04T15:07:00.613Z,68.50
2022-08-04T15:09:32.745Z,68.67
2022-08-04T15:12:01.092Z,68.79
2022-08-04T15:14:36.871Z,69.20
2022-08-04T15:17:11.884Z,68.33
2022-08-04T15:19:41.080Z,68.70
2022-08-04T15:22:23.619Z,68.09
2022-08-04T15:24:54.917Z,67.89
2022-08-04T15:27:26.668Z,68.43
2022-08-04T15:30:02.008Z,67.52
2022-08-04T15:32:32.810Z,67.88
2022-08-04T15:35:03.222Z,65.26
2022-08-04T15:37:40.295Z,68.75
2022-08-04T15:40:13.379Z,69.48
2022-08-04T15:42:48.313Z,69.56
2022-08-04T15:46:37.225Z,69.61
2022-08-04T15:48:33.083Z,70.60
2022-08-04T15:51:07.036Z,70.50
2022-08-04T15:54:27.474Z,68.74
2022-08-04T15:57:02.485Z,70.44
2022-08-04T16:00:00.517Z,72.32
2022-08-04T16:02:39.980Z,71.08
2022-08-04T16:05:39.239Z,69.91
2022-08-04T16:08:15.243Z,70.29
2022-08-04T16:10:46.374Z,71.09
2022-08-04T16:13:15.646Z,71.53
2022-08-04T16:15:46.902Z,71.85
2022-08-04T16:18:26.682Z,71.49
2022-08-04T16:20:57.840Z,72.72
2022-08-04T16:24:03.689Z,72.85
2022-08-04T16:26:53.560Z,73.35
2022-08-04T16:29:35.248Z,73.69
2022-08-04T16:32:23.464Z,72.57
2022-08-04T16:34:59.813Z,73.14
2022-08-04T16:37:33.971Z,73.65
2022-08-04T16:40:35.862Z,72.19
2022-08-04T16:43:10.401Z,73.25
2022-08-04T16:45:47.067Z,73.13
2022-08-04T16:48:16.697Z,73.81
2022-08-04T16:50:57.531Z,74.18
2022-08-04T16:54:04.348Z,74.19
2022-08-04T16:56:33.614Z,75.36
2022-08-04T16:59:08.279Z,74.98
2022-08-04T17:01:37.021Z,74.07
2022-08-04T17:04:06.449Z,73.45
2022-08-04T17:06:37.886Z,73.90
2022-08-04T17:09:07.784Z,73.58
2022-08-04T17:11:35.774Z,74.46
2022-08-04T17:14:05.889Z,74.09
2022-08-04T17:16:35.548Z,74.53
2022-08-04T17:19:03.755Z,75.03
2022-08-04T17:21:35.539Z,74.75
2022-08-04T17:24:14.806Z,74.51
2022-08-04T17:26:54.635Z,74.08
2022-08-04T17:29:43.015Z,74.00
2022-08-04T17:32:15.930Z,74.77
2022-08-04T17:34:48.579Z,74.93
2022-08-04T17:37:39.169Z,75.81
2022-08-04T17:44:04.634Z,75.94
2022-08-04T17:46:15.966Z,77.46
2022-08-04T17:48:58.926Z,76.96
2022-08-04T17:51:53.416Z,77.72
2022-08-04T17:54:37.343Z,78.48
2022-08-04T17:57:19.662Z,78.22
2022-08-04T17:59:56.278Z,78.85
2022-08-04T18:02:32.346Z,79.59
2022-08-04T18:05:06.800Z,80.26
2022-08-04T18:08:39.100Z,79.41
2022-08-04T18:10:56.188Z,80.26
2022-08-04T18:13:29.533Z,80.31
2022-08-04T18:16:03.153Z,80.09
2022-08-04T18:18:31.272Z,80.33
2022-08-04T18:21:02.954Z,80.50
2022-08-04T18:26:23.601Z,80.36
2022-08-04T18:28:53.472Z,80.22
2022-08-04T18:31:21.499Z,80.27
2022-08-04T18:33:57.131Z,80.03
2022-08-04T18:39:18.335Z,80.20
2022-08-04T18:42:06.513Z,80.57
2022-08-04T18:44:52.113Z,81.05
2022-08-04T18:47:23.059Z,81.23
2022-08-04T18:50:59.784Z,81.20
2022-08-04T18:52:45.122Z,81.53
2022-08-04T18:55:55.270Z,82.00
2022-08-04T18:58:06.291Z,82.32
2022-08-04T19:00:37.846Z,83.05
2022-08-04T19:03:13.303Z,82.82
2022-08-04T19:05:44.907Z,83.61
2022-08-04T19:08:34.438Z,83.53
2022-08-04T19:11:38.725Z,83.60
2022-08-04T19:16:45.699Z,84.68
2022-08-04T19:19:14.140Z,85.56
2022-08-04T19:22:01.424Z,85.54
2022-08-04T19:24:34.418Z,86.50
2022-08-04T19:27:06.900Z,86.28
2022-08-04T19:29:40.556Z,87.91
2022-08-04T19:32:14.114Z,89.22
2022-08-04T19:34:46.091Z,88.48
2022-08-04T19:37:56.191Z,90.03
2022-08-04T19:40:04.588Z,89.92
2022-08-04T19:42:33.015Z,90.74
2022-08-04T19:45:00.905Z,91.75
2022-08-04T19:48:15.933Z,92.06
2022-08-04T19:50:19.731Z,92.93
2022-08-04T19:52:51.926Z,93.91
2022-08-04T19:55:22.437Z,94.92
2022-08-04T19:57:52.479Z,94.71
2022-08-04T20:00:33.165Z,100.00
2022-08-04T20:03:13.242Z,96.09
2022-08-04T20:05:55.397Z,95.84
2022-08-04T20:08:27.938Z,97.49
2022-08-04T20:10:56.040Z,97.80
2022-08-04T20:13:37.025Z,98.43
2022-08-04T20:16:28.553Z,99.79
2022-08-04T20:19:02.755Z,100.00
2022-08-04T20:21:36.503Z,100.00
2022-08-04T20:24:39.461Z,100.00
2022-08-04T20:27:14.903Z,100.00
2022-08-04T20:29:48.293Z,100.00
2022-08-04T20:32:19.246Z,100.00
2022-08-04T20:34:48.962Z,100.00
2022-08-04T20:37:17.194Z,100.00
2022-08-04T20:39:45.472Z,100.00
2022-08-04T20:42:27.019Z,100.00
2022-08-04T20:44:55.848Z,100.00
2022-08-04T20:47:26.743Z,100.00
2022-08-04T20:50:00.669Z,100.00
2022-08-04T20:52:30.288Z,100.00
2022-08-04T20:54:58.768Z,100.00
2022-08-04T20:57:47.643Z,100.00
2022-08-04T21:00:15.590Z,100.00
2022-08-04T21:02:44.478Z,100.00
2022-08-04T21:05:13.863Z,100.00
2022-08-04T21:07:48.738Z,100.00
2022-08-04T21:10:17.188Z,100.00
2022-08-04T21:12:50.032Z,100.00
2022-08-04T21:15:25.048Z,100.00
2022-08-04T21:17:59.136Z,100.00
2022-08-04T21:20:34.532Z,100.00
2022-08-04T21:23:03.630Z,100.00
2022-08-04T21:25:42.479Z,100.00
2022-08-04T21:28:11.035Z,100.00
2022-08-04T21:30:54.750Z,100.00
2022-08-04T21:33:49.002Z,100.00
2022-08-04T21:36:19.473Z,100.00
2022-08-04T21:38:51.081Z,100.00
2022-08-04T21:41:27.004Z,100.00
2022-08-04T21:43:56.406Z,100.00
2022-08-04T21:46:27.473Z,100.00
2022-08-04T21:48:58.750Z,100.00
2022-08-04T21:51:59.350Z,100.00
2022-08-04T21:54:20.047Z,100.00
2022-08-04T21:56:52.247Z,100.00
2022-08-04T21:59:23.630Z,100.00
2022-08-04T22:02:00.370Z,100.00
2022-08-04T22:04:28.885Z,100.00
2022-08-04T22:06:58.191Z,100.00
2022-08-04T22:09:31.599Z,100.00
2022-08-04T22:12:07.191Z,100.00
2022-08-04T22:14:39.426Z,100.00
2022-08-04T22:17:07.532Z,100.00
2022-08-04T22:19:55.991Z,100.00
2022-08-04T22:22:29.584Z,100.00
2022-08-04T22:25:12.429Z,100.00
2022-08-04T22:28:00.883Z,100.00
2022-08-04T22:30:33.319Z,100.00
2022-08-04T22:33:07.366Z,100.00
2022-08-04T22:35:48.870Z,100.00
2022-08-04T22:38:24.307Z,100.00
2022-08-04T22:40:58.474Z,100.00
2022-08-04T22:43:32.576Z,100.00
2022-08-04T22:46:03.924Z,100.00
2022-08-04T22:48:33.419Z,100.00
2022-08-04T22:51:01.422Z,100.00
2022-08-04T22:53:32.204Z,100.00
2022-08-04T22:56:09.461Z,100.00
2022-08-04T22:58:40.184Z,100.00
2022-08-04T23:01:09.190Z,100.00
2022-08-04T23:03:38.592Z,100.00
2022-08-04T23:06:11.766Z,100.00
2022-08-04T23:08:43.019Z,100.00
2022-08-04T23:11:14.953Z,100.00
2022-08-04T23:13:42.966Z,100.00
2022-08-04T23:16:11.208Z,100.00
2022-08-04T23:18:42.341Z,100.00
2022-08-04T23:21:13.964Z,100.00
2022-08-04T23:23:55.502Z,100.00
2022-08-04T23:26:31.700Z,100.00
2022-08-04T23:29:03.714Z,100.00
2022-08-04T23:31:41.276Z,100.00
2022-08-04T23:34:20.034Z,100.00
2022-08-04T23:36:49.295Z,100.00
2022-08-04T23:39:19.340Z,100.00
2022-08-04T23:41:53.952Z,100.00
2022-08-04T23:44:26.891Z,100.00
2022-08-04T23:47:02.010Z,100.00
2022-08-04T23:49:44.067Z,100.00
2022-08-04T23:52:23.216Z,100.00
2022-08-04T23:54:59.954Z,100.00
2022-08-04T23:57:31.390Z,100.00
